Tulare, CA

9:53 PM PDT on September 30, 2014 (GMT -0700)
APRSWXNET Tulare CA US | Change Station
CLOSE
Current Station
Personal Weather Station
Location: Tulare, CA
Elevation: 298 ft
Nearby Weather Stations

Elev 298 ft 36.21 °N, 119.31 °W | Updated 50 minutes ago

Clear
Clear
74 °F
Feels Like 77 °F
N
5
Wind Variable Wind from NW
Gusts 9.0 mph

Today
High -- | Low -- °F
--% Chance of Precip.
Yesterday
High -- | Low -- °F
Precip. -- in
6:51 AM 6:42 PM
Waxing Crescent, 43% visible
Pressure 29.80 in
Visibility 10.0 miles
Clouds Clear
Heat Index 77 °F
Dew Point 55 °F
Humidity 51%
Rainfall 0.00 in
Snow Depth 0 in , 0 in , 3 in
UV 0 out of 12
Pollen 5.40 out of 12
PM2.5 Good
Flu Activity Not available.
METAR KVIS 010435Z AUTO 34009KT 10SM CLR 22/12 A2980 RMK AO1

More Conditions Fewer Conditions

Pressure 29.80 in
Visibility 10.0 miles
Clouds Clear
Heat Index 77 °F
Dew Point 55 °F
Humidity 51%
Rainfall 0.00 in
Snow Depth 0 in , 0 in , 3 in
UV 0 out of 12
Pollen 5.40 out of 12
PM2.5 Good
Flu Activity Not available.
METAR KVIS 010435Z AUTO 34009KT 10SM CLR 22/12 A2980 RMK AO1

More Conditions Fewer Conditions

10-Day Weather Forecast

Almanac

Astronomy

Sep. 30, 2014 Rise Set
Actual Time 6:51 AM PDT 6:42 PM PDT
Civil Twilight 6:26 AM PDT 7:07 PM PDT
Nautical Twilight 5:56 AM PDT 7:37 PM PDT
Astronomical Twilight 5:26 AM PDT 8:07 PM PDT
Moon 12:56 PM PDT (9/30) 11:25 PM PDT (9/30)
Length of Visible Light 12h 41m
Length of Day
11h 50m
Tomorrow will be 2m 17s shorter.
Waxing Crescent, 43% of the Moon is Illuminated
Oct 1
Waxing Crescent
Oct 1
First Quarter
Oct 8
Full
Oct 15
Last Quarter
Oct 23
New

Yesterday's Extremes

State Highs State Lows

Community

WunderPhotos

Upload Photos

1,757,847 photos uploaded!

Nearby

Air Quality

  Air Quality AQ Index Pollutant
Yesterday Good
OZONE
Yesterday Good
PM2.5
Current Good
PM2.5
Tuesday Moderate
OZONE
Wednesday Good
OZONE
Thursday Moderate
OZONE
Friday Unhealthy for Sensitive Groups
OZONE
Saturday Unhealthy for Sensitive Groups
OZONE
Sunday Moderate
OZONE

Snow Depth

Station Depth Elevation
Hagan's Meadow 0 in 8000 ft
Adin Mountain 0 in 6200 ft
CSS Lab 3 in 6900 ft
Burnside Lake 1 in 8139 ft
Echo Peak 0 in 7800 ft

Earthquake Activity

City Distance Mag. Time & Date
Shandon, California 62 miles 2.9 5:34 PM PDT
2014-09-30
South Dos Palos, California 88 miles 2.7 3:08 PM PDT
2014-09-30
South Dos Palos, California 88 miles 2.5 9:18 PM PDT
2014-09-29
South Dos Palos, California 88 miles 2.7 8:46 PM PDT
2014-09-28
Minimum magnitude displayed is 2.5.

Coastal Water Temperatures

Place Temperature
No Stations Reporting

Nearby Weather Stations